createdAt,value
2018-02-27T00:00:15.307Z,97425.76
2018-02-27T00:02:42.850Z,97425.27
2018-02-27T00:05:10.375Z,97416.00
2018-02-27T00:07:37.898Z,97414.06
2018-02-27T00:10:05.768Z,97407.73
2018-02-27T00:12:33.294Z,97414.19
2018-02-27T00:15:01.165Z,97400.03
2018-02-27T00:17:28.686Z,97407.41
2018-02-27T00:19:56.202Z,97407.71
2018-02-27T00:22:23.749Z,97403.07
2018-02-27T00:24:51.329Z,97401.94
2018-02-27T00:27:19.053Z,97401.87
2018-02-27T00:29:46.638Z,97400.84
2018-02-27T00:32:14.157Z,97402.69
2018-02-27T00:34:42.173Z,97399.61
2018-02-27T00:37:09.681Z,97401.30
2018-02-27T00:39:37.565Z,97398.50
2018-02-27T00:42:05.083Z,97402.09
2018-02-27T00:44:32.605Z,97400.86
2018-02-27T00:47:00.155Z,97395.88
2018-02-27T00:49:27.681Z,97393.57
2018-02-27T00:51:55.465Z,97397.66
2018-02-27T00:54:22.982Z,97394.50
2018-02-27T00:56:50.499Z,97396.08
2018-02-27T00:59:18.042Z,97396.31
2018-02-27T01:01:45.582Z,97391.85
2018-02-27T01:04:13.137Z,97388.13
2018-02-27T01:06:40.676Z,97391.84
2018-02-27T01:09:08.190Z,97388.45
2018-02-27T01:11:35.758Z,97382.30
2018-02-27T01:14:03.277Z,97392.20
2018-02-27T01:16:30.859Z,97382.81
2018-02-27T01:18:58.394Z,97388.02
2018-02-27T01:21:25.908Z,97376.55
2018-02-27T01:23:53.462Z,97379.21
2018-02-27T01:26:20.992Z,97375.84
2018-02-27T01:28:48.857Z,97376.97
2018-02-27T01:31:16.372Z,97381.08
2018-02-27T01:33:43.890Z,97374.05
2018-02-27T01:36:11.436Z,97370.78
2018-02-27T01:38:38.951Z,97368.64
2018-02-27T01:41:06.643Z,97372.33
2018-02-27T01:43:34.150Z,97364.36
2018-02-27T01:46:01.663Z,97362.99
2018-02-27T01:48:29.202Z,97356.78
2018-02-27T01:51:08.733Z,97357.23
2018-02-27T01:53:36.283Z,97359.59
2018-02-27T01:56:03.813Z,97346.77
2018-02-27T01:58:31.325Z,97349.36
2018-02-27T02:00:58.890Z,97337.91
2018-02-27T02:03:26.419Z,97345.82
2018-02-27T02:05:54.129Z,97344.63
2018-02-27T02:08:21.655Z,97344.30
2018-02-27T02:10:49.173Z,97341.71
2018-02-27T02:13:16.712Z,97346.34
2018-02-27T02:15:45.775Z,97342.52
2018-02-27T02:18:13.351Z,97340.91
2018-02-27T02:20:40.861Z,97340.00
2018-02-27T02:23:08.383Z,97342.52
2018-02-27T02:25:35.927Z,97338.06
2018-02-27T02:28:03.439Z,97339.09
2018-02-27T02:30:30.987Z,97329.08
2018-02-27T02:32:58.518Z,97332.62
2018-02-27T02:35:26.026Z,97322.11
2018-02-27T02:37:53.594Z,97322.73
2018-02-27T02:40:21.110Z,97314.65
2018-02-27T02:42:49.063Z,97322.08
2018-02-27T02:45:16.570Z,97316.52
2018-02-27T02:47:44.266Z,97315.84
2018-02-27T02:50:11.794Z,97321.44
2018-02-27T02:52:40.441Z,97318.91
2018-02-27T02:55:07.983Z,97316.15
2018-02-27T02:57:35.493Z,97313.88
2018-02-27T03:00:03.409Z,97313.44
2018-02-27T03:02:30.925Z,97312.78
2018-02-27T03:04:58.441Z,97316.85
2018-02-27T03:07:25.986Z,97313.47
2018-02-27T03:09:53.494Z,97312.73
2018-02-27T03:12:21.041Z,97308.86
2018-02-27T03:14:48.562Z,97314.70
2018-02-27T03:17:16.531Z,97310.44
2018-02-27T03:19:44.075Z,97309.34
2018-02-27T03:22:11.682Z,97307.02
2018-02-27T03:24:39.389Z,97309.56
2018-02-27T03:27:06.896Z,97304.32
2018-02-27T03:29:34.414Z,97307.53
2018-02-27T03:32:01.958Z,97300.87
2018-02-27T03:34:30.459Z,97294.11
2018-02-27T03:36:58.110Z,97291.02
2018-02-27T03:39:25.631Z,97285.70
2018-02-27T03:41:53.143Z,97286.73
2018-02-27T03:44:20.682Z,97287.66
2018-02-27T03:46:48.190Z,97291.48
2018-02-27T03:49:15.902Z,97292.61
2018-02-27T03:51:43.413Z,97292.48
2018-02-27T03:54:10.944Z,97287.31
2018-02-27T03:56:39.341Z,97287.56
2018-02-27T03:59:06.846Z,97280.18
2018-02-27T04:01:34.621Z,97283.66
2018-02-27T04:04:02.134Z,97283.97
2018-02-27T04:06:29.659Z,97286.36
2018-02-27T04:08:57.219Z,97280.56
2018-02-27T04:11:24.733Z,97273.77
2018-02-27T04:13:52.281Z,97269.53
2018-02-27T04:16:19.797Z,97273.90
2018-02-27T04:18:47.318Z,97277.88
2018-02-27T04:21:14.876Z,97268.95
2018-02-27T04:23:42.396Z,97272.84
2018-02-27T04:26:10.138Z,97263.44
2018-02-27T04:28:37.656Z,97269.80
2018-02-27T04:31:05.162Z,97269.62
2018-02-27T04:33:32.706Z,97270.39
2018-02-27T04:36:00.221Z,97269.31
2018-02-27T04:38:28.014Z,97271.00
2018-02-27T04:40:55.545Z,97264.64
2018-02-27T04:43:23.063Z,97269.24
2018-02-27T04:45:50.610Z,97271.80
2018-02-27T04:48:18.132Z,97262.89
2018-02-27T04:50:45.939Z,97267.31
2018-02-27T04:53:13.485Z,97265.98
2018-02-27T04:55:41.002Z,97262.30
2018-02-27T04:58:08.545Z,97265.75
2018-02-27T05:00:36.077Z,97267.02
2018-02-27T05:03:03.815Z,97265.62
2018-02-27T05:05:32.200Z,97266.53
2018-02-27T05:08:00.490Z,97261.30
2018-02-27T05:10:28.033Z,97261.37
2018-02-27T05:12:55.549Z,97258.67
2018-02-27T05:15:23.344Z,97262.50
2018-02-27T05:17:50.878Z,97253.61
2018-02-27T05:20:18.388Z,97261.90
2018-02-27T05:22:45.925Z,97260.25
2018-02-27T05:25:13.450Z,97250.23
2018-02-27T05:27:40.998Z,97254.45
2018-02-27T05:30:08.514Z,97251.48
2018-02-27T05:32:36.035Z,97259.45
2018-02-27T05:35:03.584Z,97253.62
2018-02-27T05:37:31.113Z,97256.91
2018-02-27T05:39:58.838Z,97251.53
2018-02-27T05:42:26.420Z,97255.73
2018-02-27T05:44:53.947Z,97250.58
2018-02-27T05:47:21.486Z,97255.19
2018-02-27T05:49:49.014Z,97255.22
2018-02-27T05:52:16.569Z,97252.23
2018-02-27T05:54:44.095Z,97260.31
2018-02-27T05:57:11.611Z,97259.78
2018-02-27T05:59:39.172Z,97259.56
2018-02-27T06:02:06.690Z,97253.58
2018-02-27T06:04:34.429Z,97259.52
2018-02-27T06:07:02.930Z,97262.77
2018-02-27T06:09:30.489Z,97258.09
2018-02-27T06:11:58.046Z,97262.45
2018-02-27T06:14:25.561Z,97263.68
2018-02-27T06:16:53.349Z,97263.72
2018-02-27T06:19:20.866Z,97259.64
2018-02-27T06:21:48.389Z,97263.70
2018-02-27T06:24:15.943Z,97261.63
2018-02-27T06:26:43.459Z,97255.91
2018-02-27T06:29:11.037Z,97261.95
2018-02-27T06:31:38.566Z,97258.03
2018-02-27T06:34:06.081Z,97263.52
2018-02-27T06:36:33.631Z,97269.45
2018-02-27T06:39:01.153Z,97264.85
2018-02-27T06:41:28.849Z,97266.25
2018-02-27T06:43:56.374Z,97262.34
2018-02-27T06:46:23.888Z,97271.05
2018-02-27T06:48:52.358Z,97264.67
2018-02-27T06:51:19.873Z,97265.64
2018-02-27T06:53:47.665Z,97261.02
2018-02-27T06:56:15.183Z,97262.70
2018-02-27T06:58:42.703Z,97259.65
2018-02-27T07:01:10.253Z,97263.06
2018-02-27T07:03:37.774Z,97255.73
2018-02-27T07:06:05.376Z,97257.91
2018-02-27T07:08:32.891Z,97259.03
2018-02-27T07:11:00.415Z,97259.37
2018-02-27T07:13:27.956Z,97262.55
2018-02-27T07:15:55.486Z,97264.53
2018-02-27T07:18:23.156Z,97262.70
2018-02-27T07:20:50.668Z,97253.88
2018-02-27T07:23:18.177Z,97259.11
2018-02-27T07:25:45.724Z,97259.78
2018-02-27T07:28:13.237Z,97254.88
2018-02-27T07:30:40.863Z,97255.89
2018-02-27T07:33:08.402Z,97257.74
2018-02-27T07:35:35.926Z,97250.27
2018-02-27T07:38:03.470Z,97258.58
2018-02-27T07:40:30.986Z,97263.48
2018-02-27T07:42:58.542Z,97254.42
2018-02-27T07:45:26.055Z,97253.72
2018-02-27T07:47:53.584Z,97256.18
2018-02-27T07:50:21.132Z,97251.26
2018-02-27T07:52:48.646Z,97253.53
2018-02-27T07:55:16.489Z,97260.73
2018-02-27T07:57:44.013Z,97259.56
2018-02-27T08:00:11.525Z,97255.84
2018-02-27T08:02:39.074Z,97259.94
2018-02-27T08:05:06.594Z,97256.92
2018-02-27T08:07:34.177Z,97253.17
2018-02-27T08:10:01.703Z,97247.24
2018-02-27T08:12:29.226Z,97251.92
2018-02-27T08:14:56.774Z,97250.22
2018-02-27T08:17:24.397Z,97244.58
2018-02-27T08:19:52.348Z,97243.86
2018-02-27T08:22:19.868Z,97249.56
2018-02-27T08:24:47.378Z,97247.74
2018-02-27T08:27:14.929Z,97256.45
2018-02-27T08:29:42.455Z,97254.78
2018-02-27T08:32:10.253Z,97263.22
2018-02-27T08:34:37.793Z,97256.30
2018-02-27T08:37:05.310Z,97259.44
2018-02-27T08:39:32.865Z,97256.89
2018-02-27T08:42:00.394Z,97259.70
2018-02-27T08:44:27.994Z,97261.20
2018-02-27T08:46:55.519Z,97260.38
2018-02-27T08:49:23.042Z,97254.56
2018-02-27T08:51:50.595Z,97260.97
2018-02-27T08:54:18.118Z,97255.78
2018-02-27T08:56:45.826Z,97257.87
2018-02-27T08:59:13.364Z,97258.53
2018-02-27T09:01:40.897Z,97264.74
2018-02-27T09:04:08.436Z,97255.45
2018-02-27T09:06:35.948Z,97255.19
2018-02-27T09:09:03.497Z,97252.38
2018-02-27T09:11:31.009Z,97245.00
2018-02-27T09:13:58.538Z,97248.60
2018-02-27T09:16:26.089Z,97243.16
2018-02-27T09:18:53.614Z,97246.81
2018-02-27T09:21:21.365Z,97243.70
2018-02-27T09:23:48.882Z,97238.66
2018-02-27T09:26:16.396Z,97236.30
2018-02-27T09:28:44.861Z,97240.69
2018-02-27T09:31:12.381Z,97228.95
2018-02-27T09:33:40.241Z,97233.27
2018-02-27T09:36:07.763Z,97234.44
2018-02-27T09:38:35.379Z,97228.77
2018-02-27T09:41:02.949Z,97229.44
2018-02-27T09:43:30.473Z,97234.14
2018-02-27T09:45:58.038Z,97229.86
2018-02-27T09:48:25.563Z,97221.52
2018-02-27T09:50:53.109Z,97234.33
2018-02-27T09:53:21.653Z,97233.72
2018-02-27T09:55:49.164Z,97235.11
2018-02-27T09:58:16.958Z,97237.23
2018-02-27T10:00:45.457Z,97241.03
2018-02-27T10:03:16.460Z,97237.02
2018-02-27T10:05:44.048Z,97236.08
2018-02-27T10:08:11.566Z,97235.27
2018-02-27T10:10:39.566Z,97236.86
2018-02-27T10:13:07.083Z,97233.63
2018-02-27T10:15:34.594Z,97227.73
2018-02-27T10:18:02.146Z,97237.25
2018-02-27T10:20:29.741Z,97232.68
2018-02-27T10:22:57.790Z,97229.14
2018-02-27T10:25:25.313Z,97225.20
2018-02-27T10:27:52.870Z,97225.14
2018-02-27T10:30:20.422Z,97233.92
2018-02-27T10:32:47.946Z,97226.45
2018-02-27T10:35:15.590Z,97227.57
2018-02-27T10:37:44.046Z,97228.45
2018-02-27T10:40:11.574Z,97232.04
2018-02-27T10:42:39.119Z,97229.46
2018-02-27T10:45:06.654Z,97220.47
2018-02-27T10:47:34.302Z,97228.26
2018-02-27T10:50:01.823Z,97226.95
2018-02-27T10:52:29.338Z,97223.77
2018-02-27T10:54:56.886Z,97224.14
2018-02-27T10:57:24.409Z,97224.69
2018-02-27T10:59:52.183Z,97221.73
2018-02-27T11:02:19.707Z,97226.77
2018-02-27T11:04:47.737Z,97215.94
2018-02-27T11:07:15.290Z,97219.37
2018-02-27T11:09:43.259Z,97222.30
2018-02-27T11:12:11.010Z,97212.24
2018-02-27T11:14:38.596Z,97212.08
2018-02-27T11:17:06.343Z,97204.66
2018-02-27T11:19:34.305Z,97199.51
2018-02-27T11:22:01.838Z,97196.11
2018-02-27T11:24:29.616Z,97197.45
2018-02-27T11:26:57.130Z,97196.16
2018-02-27T11:29:24.653Z,97194.75
2018-02-27T11:31:52.199Z,97194.52
2018-02-27T11:34:19.709Z,97197.57
2018-02-27T11:36:47.522Z,97192.29
2018-02-27T11:39:15.047Z,97193.14
2018-02-27T11:41:43.576Z,97188.19
2018-02-27T11:44:11.141Z,97191.48
2018-02-27T11:46:39.029Z,97188.58
2018-02-27T11:49:06.618Z,97181.94
2018-02-27T11:51:34.224Z,97188.58
2018-02-27T11:54:01.759Z,97179.53
2018-02-27T11:56:29.466Z,97186.67
2018-02-27T11:58:57.070Z,97184.88
2018-02-27T12:01:25.586Z,97188.55
2018-02-27T12:03:53.106Z,97182.36
2018-02-27T12:06:21.523Z,97175.30
2018-02-27T12:08:50.107Z,97173.19
2018-02-27T12:11:17.695Z,97163.73
2018-02-27T12:13:45.466Z,97161.73
2018-02-27T12:16:12.952Z,97161.55
2018-02-27T12:18:40.466Z,97161.09
2018-02-27T12:21:08.011Z,97163.80
2018-02-27T12:23:35.543Z,97159.63
2018-02-27T12:26:03.331Z,97165.11
2018-02-27T12:28:30.875Z,97167.36
2018-02-27T12:30:58.386Z,97165.06
2018-02-27T12:33:25.951Z,97161.36
2018-02-27T12:35:53.470Z,97162.16
2018-02-27T12:38:21.209Z,97156.86
2018-02-27T12:40:48.719Z,97158.09
2018-02-27T12:43:16.250Z,97155.61
2018-02-27T12:45:44.826Z,97152.73
2018-02-27T12:48:12.692Z,97147.50
2018-02-27T12:50:40.868Z,97148.69
2018-02-27T12:53:08.395Z,97151.64
2018-02-27T12:55:35.938Z,97149.98
2018-02-27T12:58:03.604Z,97152.00
2018-02-27T13:00:31.145Z,97150.74
2018-02-27T13:02:58.892Z,97153.24
2018-02-27T13:05:26.629Z,97147.80
2018-02-27T13:07:54.395Z,97143.65
2018-02-27T13:10:22.150Z,97151.73
2018-02-27T13:12:49.930Z,97153.96
2018-02-27T13:15:17.658Z,97145.80
2018-02-27T13:17:45.220Z,97148.31
2018-02-27T13:20:12.820Z,97141.65
2018-02-27T13:22:40.775Z,97144.97
2018-02-27T13:25:08.641Z,97139.53
2018-02-27T13:27:36.499Z,97142.53
2018-02-27T13:30:04.082Z,97141.91
2018-02-27T13:32:31.809Z,97140.25
2018-02-27T13:34:59.595Z,97137.39
2018-02-27T13:37:27.304Z,97138.80
2018-02-27T13:39:55.327Z,97147.83
2018-02-27T13:42:22.944Z,97143.37
2018-02-27T13:44:50.504Z,97146.08
2018-02-27T13:47:18.062Z,97131.28
2018-02-27T13:49:45.588Z,97132.96
2018-02-27T13:52:14.529Z,97132.55
2018-02-27T13:54:42.937Z,97135.39
2018-02-27T13:57:10.801Z,97135.79
2018-02-27T13:59:38.462Z,97134.89
2018-02-27T14:02:06.297Z,97140.52
2018-02-27T14:04:34.178Z,97129.84
2018-02-27T14:07:01.961Z,97127.13
2018-02-27T14:09:29.505Z,97130.56
2018-02-27T14:11:57.064Z,97127.11
2018-02-27T14:14:24.638Z,97134.11
2018-02-27T14:16:52.636Z,97131.78
2018-02-27T14:19:20.251Z,97130.02
2018-02-27T14:21:48.031Z,97126.73
2018-02-27T14:24:15.792Z,97126.03
2018-02-27T14:26:43.327Z,97124.66
2018-02-27T14:29:11.528Z,97122.66
2018-02-27T14:31:39.087Z,97114.15
2018-02-27T14:34:06.625Z,97114.84
2018-02-27T14:36:34.181Z,97111.38
2018-02-27T14:39:01.743Z,97111.00
2018-02-27T14:41:29.837Z,97101.24
2018-02-27T14:43:57.411Z,97108.64
2018-02-27T14:46:24.967Z,97107.85
2018-02-27T14:48:52.906Z,97110.91
2018-02-27T14:51:20.690Z,97104.65
2018-02-27T14:53:48.870Z,97112.41
2018-02-27T14:56:16.445Z,97110.18
2018-02-27T14:58:43.992Z,97106.33
2018-02-27T15:01:11.573Z,97108.97
2018-02-27T15:03:39.432Z,97102.59
2018-02-27T15:06:07.581Z,97107.77
2018-02-27T15:08:35.550Z,97102.59
2018-02-27T15:11:04.195Z,97107.27
2018-02-27T15:13:31.777Z,97105.08
2018-02-27T15:15:59.704Z,97104.94
2018-02-27T15:18:29.210Z,97097.35
2018-02-27T15:20:58.119Z,97105.17
2018-02-27T15:23:26.944Z,97107.58
2018-02-27T15:25:54.695Z,97104.81
2018-02-27T15:28:22.579Z,97101.11
2018-02-27T15:30:50.650Z,97100.64
2018-02-27T15:33:18.484Z,97091.69
2018-02-27T15:35:46.380Z,97094.52
2018-02-27T15:38:14.351Z,97095.61
2018-02-27T15:40:42.117Z,97095.34
2018-02-27T15:43:11.112Z,97102.16
2018-02-27T15:45:38.975Z,97103.41
2018-02-27T15:48:06.849Z,97106.19
2018-02-27T15:50:34.523Z,97103.45
2018-02-27T15:53:02.472Z,97106.25
2018-02-27T15:55:30.745Z,97113.92
2018-02-27T15:57:58.565Z,97106.09
2018-02-27T16:00:26.371Z,97109.36
2018-02-27T16:02:54.245Z,97108.44
2018-02-27T16:05:22.109Z,97112.42
2018-02-27T16:07:49.916Z,97109.32
2018-02-27T16:10:17.952Z,97111.23
2018-02-27T16:12:46.323Z,97110.02
2018-02-27T16:15:14.090Z,97111.25
2018-02-27T16:17:41.854Z,97111.55
2018-02-27T16:20:09.820Z,97110.67
2018-02-27T16:22:37.494Z,97111.04
2018-02-27T16:25:05.963Z,97122.78
2018-02-27T16:27:33.960Z,97116.58
2018-02-27T16:30:01.902Z,97115.73
2018-02-27T16:32:30.676Z,97114.03
2018-02-27T16:34:58.418Z,97122.03
2018-02-27T16:37:26.420Z,97126.38
2018-02-27T16:39:54.389Z,97127.95
2018-02-27T16:42:22.258Z,97128.96
2018-02-27T16:44:50.224Z,97142.84
2018-02-27T16:47:19.890Z,97145.82
2018-02-27T16:49:48.057Z,97147.94
2018-02-27T16:52:16.402Z,97149.03
2018-02-27T16:54:44.341Z,97143.68
2018-02-27T16:57:13.026Z,97157.64
2018-02-27T16:59:41.008Z,97151.98
2018-02-27T17:02:08.976Z,97157.18
2018-02-27T17:04:36.946Z,97157.47
2018-02-27T17:07:05.639Z,97167.66
2018-02-27T17:09:33.599Z,97170.81
2018-02-27T17:12:01.743Z,97170.95
2018-02-27T17:14:29.845Z,97176.88
2018-02-27T17:16:58.019Z,97176.39
2018-02-27T17:19:26.327Z,97178.11
2018-02-27T17:21:54.467Z,97179.06
2018-02-27T17:24:22.744Z,97179.50
2018-02-27T17:26:50.817Z,97180.84
2018-02-27T17:29:18.680Z,97185.47
2018-02-27T17:31:46.549Z,97188.19
2018-02-27T17:34:14.778Z,97188.36
2018-02-27T17:36:42.600Z,97188.37
2018-02-27T17:39:10.411Z,97187.67
2018-02-27T17:41:38.322Z,97184.77
2018-02-27T17:44:06.190Z,97180.59
2018-02-27T17:46:34.360Z,97180.13
2018-02-27T17:49:02.330Z,97184.09
2018-02-27T17:51:31.118Z,97184.14
2018-02-27T17:53:58.980Z,97186.93
2018-02-27T17:56:26.852Z,97188.13
2018-02-27T17:58:54.991Z,97184.14
2018-02-27T18:01:22.910Z,97178.87
2018-02-27T18:03:50.697Z,97181.58
2018-02-27T18:06:18.620Z,97175.13
2018-02-27T18:08:46.801Z,97178.63
2018-02-27T18:11:14.974Z,97179.61
2018-02-27T18:13:42.734Z,97186.67
2018-02-27T18:16:10.602Z,97180.73
2018-02-27T18:18:38.674Z,97181.98
2018-02-27T18:21:06.709Z,97178.33
2018-02-27T18:23:35.144Z,97179.28
2018-02-27T18:26:02.989Z,97180.89
2018-02-27T18:28:31.662Z,97182.95
2018-02-27T18:31:00.464Z,97178.63
2018-02-27T18:33:28.945Z,97173.28
2018-02-27T18:35:57.491Z,97173.31
2018-02-27T18:38:25.500Z,97164.20
2018-02-27T18:40:53.487Z,97167.64
2018-02-27T18:43:25.045Z,97173.75
2018-02-27T18:45:54.113Z,97169.19
2018-02-27T18:48:22.417Z,97170.09
2018-02-27T18:50:50.182Z,97163.73
2018-02-27T18:53:17.976Z,97166.56
2018-02-27T18:55:46.194Z,97167.81
2018-02-27T18:58:14.060Z,97160.00
2018-02-27T19:00:42.252Z,97161.14
2018-02-27T19:03:10.613Z,97162.75
2018-02-27T19:05:38.685Z,97161.58
2018-02-27T19:08:06.653Z,97168.09
2018-02-27T19:10:34.929Z,97164.77
2018-02-27T19:13:03.106Z,97166.60
2018-02-27T19:15:31.789Z,97161.97
2018-02-27T19:17:59.757Z,97160.41
2018-02-27T19:20:27.744Z,97166.93
2018-02-27T19:22:56.209Z,97163.45
2018-02-27T19:25:24.198Z,97167.44
2018-02-27T19:27:52.144Z,97174.75
2018-02-27T19:30:20.130Z,97169.67
2018-02-27T19:32:47.999Z,97172.76
2018-02-27T19:35:16.057Z,97175.59
2018-02-27T19:37:44.328Z,97167.73
2018-02-27T19:40:12.297Z,97166.73
2018-02-27T19:42:40.163Z,97172.98
2018-02-27T19:45:08.758Z,97170.44
2018-02-27T19:47:36.716Z,97168.78
2018-02-27T19:50:04.686Z,97170.36
2018-02-27T19:52:32.570Z,97166.72
2018-02-27T19:55:00.435Z,97171.25
2018-02-27T19:57:29.620Z,97167.16
2018-02-27T19:59:57.543Z,97172.52
2018-02-27T20:02:26.067Z,97167.58
2018-02-27T20:04:54.038Z,97161.53
2018-02-27T20:07:21.900Z,97170.54
2018-02-27T20:09:50.594Z,97168.56
2018-02-27T20:12:19.151Z,97174.30
2018-02-27T20:14:47.653Z,97169.28
2018-02-27T20:17:15.932Z,97164.30
2018-02-27T20:19:44.818Z,97160.88
2018-02-27T20:22:13.266Z,97164.87
2018-02-27T20:24:41.684Z,97169.35
2018-02-27T20:27:09.623Z,97167.11
2018-02-27T20:29:38.332Z,97168.29
2018-02-27T20:32:06.505Z,97171.66
2018-02-27T20:34:34.487Z,97175.90
2018-02-27T20:37:02.443Z,97174.03
2018-02-27T20:39:30.422Z,97178.72
2018-02-27T20:41:58.297Z,97180.03
2018-02-27T20:44:26.656Z,97179.59
2018-02-27T20:46:54.626Z,97179.06
2018-02-27T20:49:22.694Z,97187.39
2018-02-27T20:51:50.878Z,97188.19
2018-02-27T20:54:22.902Z,97190.00
2018-02-27T20:56:51.332Z,97190.69
2018-02-27T20:59:19.281Z,97186.56
2018-02-27T21:01:47.165Z,97191.05
2018-02-27T21:04:15.117Z,97186.91
2018-02-27T21:06:42.982Z,97188.14
2018-02-27T21:09:11.125Z,97190.01
2018-02-27T21:11:39.555Z,97187.04
2018-02-27T21:14:07.504Z,97186.50
2018-02-27T21:16:35.396Z,97185.33
2018-02-27T21:19:03.342Z,97182.88
2018-02-27T21:21:31.206Z,97182.69
2018-02-27T21:23:59.121Z,97181.41
2018-02-27T21:26:27.040Z,97178.02
2018-02-27T21:28:55.829Z,97183.64
2018-02-27T21:31:23.696Z,97187.75
2018-02-27T21:33:51.535Z,97185.23
2018-02-27T21:36:19.961Z,97181.42
2018-02-27T21:38:48.023Z,97180.16
2018-02-27T21:41:15.878Z,97184.22
2018-02-27T21:43:44.359Z,97180.59
2018-02-27T21:46:12.170Z,97186.68
2018-02-27T21:48:39.990Z,97180.44
2018-02-27T21:51:07.963Z,97178.27
2018-02-27T21:53:36.746Z,97179.27
2018-02-27T21:56:04.715Z,97183.12
2018-02-27T21:58:32.685Z,97179.13
2018-02-27T22:01:01.165Z,97179.78
2018-02-27T22:03:29.111Z,97170.92
2018-02-27T22:05:58.026Z,97175.52
2018-02-27T22:08:26.625Z,97172.58
2018-02-27T22:10:54.958Z,97181.99
2018-02-27T22:13:22.853Z,97182.61
2018-02-27T22:15:51.220Z,97183.84
2018-02-27T22:18:19.826Z,97180.02
2018-02-27T22:20:48.173Z,97183.74
2018-02-27T22:23:16.176Z,97177.05
2018-02-27T22:25:43.948Z,97181.89
2018-02-27T22:28:11.999Z,97178.52
2018-02-27T22:30:40.087Z,97179.65
2018-02-27T22:33:07.872Z,97179.75
2018-02-27T22:35:35.597Z,97182.61
2018-02-27T22:38:04.059Z,97184.27
2018-02-27T22:40:31.946Z,97176.73
2018-02-27T22:42:59.608Z,97181.48
2018-02-27T22:45:27.392Z,97185.17
2018-02-27T22:47:55.027Z,97184.95
2018-02-27T22:50:22.778Z,97178.96
2018-02-27T22:52:50.562Z,97177.45
2018-02-27T22:55:19.361Z,97177.12
2018-02-27T22:57:47.125Z,97170.16
2018-02-27T23:00:14.878Z,97161.95
2018-02-27T23:02:42.455Z,97161.76
2018-02-27T23:05:10.100Z,97155.39
2018-02-27T23:07:38.055Z,97148.09
2018-02-27T23:10:05.811Z,97159.86
2018-02-27T23:12:33.399Z,97154.20
2018-02-27T23:15:00.966Z,97149.38
2018-02-27T23:17:28.708Z,97153.10
2018-02-27T23:19:56.287Z,97156.02
2018-02-27T23:22:24.022Z,97154.96
2018-02-27T23:24:57.330Z,97153.86
2018-02-27T23:27:26.332Z,97149.92
2018-02-27T23:29:54.826Z,97154.15
2018-02-27T23:32:26.331Z,97160.16
2018-02-27T23:34:54.677Z,97151.08
2018-02-27T23:37:22.510Z,97154.91
2018-02-27T23:39:50.570Z,97148.70
2018-02-27T23:42:18.110Z,97152.18
2018-02-27T23:44:45.766Z,97156.95
2018-02-27T23:47:13.286Z,97147.55
2018-02-27T23:49:40.812Z,97155.75
2018-02-27T23:52:08.683Z,97153.89
2018-02-27T23:54:36.552Z,97153.05
2018-02-27T23:57:04.575Z,97150.00
2018-02-27T23:59:32.088Z,97145.30
